Time;durP1;ratioP1;P1;durP2;ratioP2;P2;SDS_P1;SDS_P2;PMS_P1;PMS_P2;Temp;Humidity;BMP_temperature;BMP_pressure;BME280_temperature;BME280_humidity;BME280_pressure;Samples;Min_cycle;Max_cycle;Signal;HPM_P1;HPM_P2
2021/10/08 00:00:36;;;;;;;8.07;4.00;;;;;;;;;;6225933;28;20579;-69
2021/10/08 00:03:37;;;;;;;5.40;3.13;;;;;;;;;;6232726;28;20053;-68
2021/10/08 00:06:39;;;;;;;5.93;2.95;;;;;;;;;;6229488;28;20563;-69
2021/10/08 00:09:40;;;;;;;5.15;2.53;;;;;;;;;;6240049;28;20053;-69
2021/10/08 00:12:44;;;;;;;6.63;2.95;;;;;;;;;;6230629;28;20046;-69
2021/10/08 00:15:45;;;;;;;4.93;2.70;;;;;;;;;;6221217;28;20168;-68
2021/10/08 00:18:47;;;;;;;6.53;2.72;;;;;;;;;;6225711;28;20195;-69
2021/10/08 00:21:49;;;;;;;3.60;2.28;;;;;;;;;;6224583;28;20057;-69
2021/10/08 00:24:50;;;;;;;4.15;2.88;;;;;;;;;;6236019;28;20045;-69
2021/10/08 00:27:53;;;;;;;5.38;3.50;;;;;;;;;;6226056;28;20057;-69
2021/10/08 00:30:55;;;;;;;6.43;2.90;;;;;;;;;;6225176;28;20629;-69
2021/10/08 00:33:57;;;;;;;7.38;2.65;;;;;;;;;;6232627;28;20195;-69
2021/10/08 00:36:58;;;;;;;7.20;3.20;;;;;;;;;;6227632;28;20136;-68
2021/10/08 00:40:00;;;;;;;7.07;2.75;;;;;;;;;;6236195;28;20521;-69
2021/10/08 00:43:04;;;;;;;5.55;2.97;;;;;;;;;;6231507;28;20033;-69
2021/10/08 00:46:05;;;;;;;6.70;3.28;;;;;;;;;;6224045;28;20184;-69
2021/10/08 00:49:07;;;;;;;7.95;2.85;;;;;;;;;;6233943;28;20425;-69
2021/10/08 00:52:08;;;;;;;6.00;3.05;;;;;;;;;;6198121;28;20675;-69
2021/10/08 00:55:10;;;;;;;7.63;3.13;;;;;;;;;;6234526;28;20671;-69
2021/10/08 00:58:15;;;;;;;5.63;2.60;;;;;;;;;;6236587;28;20102;-71
2021/10/08 01:01:16;;;;;;;5.45;3.30;;;;;;;;;;6224773;28;20175;-69
2021/10/08 01:04:18;;;;;;;7.45;3.20;;;;;;;;;;6227976;28;20057;-69
2021/10/08 01:07:20;;;;;;;5.93;3.38;;;;;;;;;;6226665;28;20064;-69
2021/10/08 01:10:21;;;;;;;7.55;3.00;;;;;;;;;;6228220;28;20052;-73
2021/10/08 01:13:24;;;;;;;5.18;3.13;;;;;;;;;;6238644;28;20045;-68
2021/10/08 01:16:26;;;;;;;6.95;2.92;;;;;;;;;;6222942;28;20428;-71
2021/10/08 01:19:27;;;;;;;8.00;3.10;;;;;;;;;;6235299;28;20064;-68
2021/10/08 01:22:30;;;;;;;6.25;2.90;;;;;;;;;;6225390;28;20788;-70
2021/10/08 01:25:33;;;;;;;9.95;3.40;;;;;;;;;;6224098;28;20071;-69
2021/10/08 01:28:35;;;;;;;7.10;3.25;;;;;;;;;;6238573;28;20045;-69
2021/10/08 01:31:37;;;;;;;7.68;2.97;;;;;;;;;;6222675;28;20115;-69
2021/10/08 01:34:39;;;;;;;8.70;2.83;;;;;;;;;;6236499;28;20057;-70
2021/10/08 01:37:42;;;;;;;4.25;2.75;;;;;;;;;;6224758;28;20050;-69
2021/10/08 01:40:43;;;;;;;4.68;3.10;;;;;;;;;;6225719;28;20057;-68
2021/10/08 01:43:45;;;;;;;4.45;2.92;;;;;;;;;;6236830;28;20060;-69
2021/10/08 01:46:46;;;;;;;5.03;3.05;;;;;;;;;;6219015;28;20060;-69
2021/10/08 01:49:48;;;;;;;8.18;3.20;;;;;;;;;;6233043;28;20244;-69
2021/10/08 01:52:51;;;;;;;6.70;3.45;;;;;;;;;;6225447;28;20052;-69
2021/10/08 01:55:52;;;;;;;6.45;2.97;;;;;;;;;;6227648;28;20055;-69
2021/10/08 01:58:54;;;;;;;5.35;2.60;;;;;;;;;;6237669;28;20049;-68
2021/10/08 02:01:56;;;;;;;6.30;3.17;;;;;;;;;;6221548;28;20045;-68
2021/10/08 02:04:57;;;;;;;6.18;2.90;;;;;;;;;;6236555;28;20131;-68
2021/10/08 02:08:00;;;;;;;4.13;2.35;;;;;;;;;;6226736;28;20373;-69
2021/10/08 02:11:01;;;;;;;3.40;2.40;;;;;;;;;;6228766;28;20053;-69
2021/10/08 02:14:03;;;;;;;4.60;2.80;;;;;;;;;;6239016;28;20049;-69
2021/10/08 02:17:05;;;;;;;4.80;2.80;;;;;;;;;;6222645;28;20049;-68
2021/10/08 02:20:07;;;;;;;3.42;2.10;;;;;;;;;;6228084;28;20160;-73
2021/10/08 02:23:10;;;;;;;6.43;3.28;;;;;;;;;;6228132;28;20050;-70
2021/10/08 02:26:12;;;;;;;6.07;2.90;;;;;;;;;;6225471;28;20037;-68
2021/10/08 02:29:14;;;;;;;4.43;2.83;;;;;;;;;;6241346;28;20497;-68
2021/10/08 02:32:15;;;;;;;4.75;2.83;;;;;;;;;;6219524;28;20069;-73
2021/10/08 02:35:17;;;;;;;4.28;3.10;;;;;;;;;;6226476;28;20123;-71
2021/10/08 02:38:20;;;;;;;4.70;3.28;;;;;;;;;;6234226;28;20110;-73
2021/10/08 02:41:22;;;;;;;4.30;2.95;;;;;;;;;;6227181;28;20191;-68
2021/10/08 02:44:24;;;;;;;5.47;3.30;;;;;;;;;;6240312;28;20131;-68
2021/10/08 02:47:25;;;;;;;5.03;3.35;;;;;;;;;;6226568;28;20052;-68
2021/10/08 02:50:28;;;;;;;7.78;3.70;;;;;;;;;;6231129;28;20139;-70
2021/10/08 02:53:31;;;;;;;6.13;3.92;;;;;;;;;;6242100;28;20069;-69
2021/10/08 02:56:32;;;;;;;6.53;3.80;;;;;;;;;;6229678;28;20084;-68
2021/10/08 02:59:34;;;;;;;6.35;4.43;;;;;;;;;;6237584;28;20603;-69
2021/10/08 03:02:36;;;;;;;6.32;4.35;;;;;;;;;;6225874;28;20134;-69
2021/10/08 03:05:37;;;;;;;7.18;4.20;;;;;;;;;;6225949;28;20073;-68
2021/10/08 03:08:40;;;;;;;7.10;4.55;;;;;;;;;;6240542;28;20084;-69
2021/10/08 03:11:42;;;;;;;7.13;4.57;;;;;;;;;;6230817;28;20077;-69
2021/10/08 03:14:44;;;;;;;9.30;4.60;;;;;;;;;;6241125;28;21218;-68
2021/10/08 03:17:46;;;;;;;9.63;5.00;;;;;;;;;;6215036;28;20064;-76
2021/10/08 03:20:47;;;;;;;6.72;4.60;;;;;;;;;;6226496;28;20211;-74
2021/10/08 03:23:50;;;;;;;9.43;4.47;;;;;;;;;;6235240;28;20058;-68
2021/10/08 03:26:52;;;;;;;7.67;4.73;;;;;;;;;;6225813;28;20119;-69
2021/10/08 03:29:54;;;;;;;8.52;5.57;;;;;;;;;;6240317;28;20038;-70
2021/10/08 03:32:55;;;;;;;6.35;4.60;;;;;;;;;;6225769;28;20053;-69
2021/10/08 03:35:57;;;;;;;7.55;4.72;;;;;;;;;;6228502;28;20037;-69
2021/10/08 03:39:00;;;;;;;7.45;4.95;;;;;;;;;;6240934;28;20148;-70
2021/10/08 03:42:01;;;;;;;10.27;4.70;;;;;;;;;;6225723;28;20554;-68
2021/10/08 03:45:10;;;;;;;6.43;4.57;;;;;;;;;;6239381;28;20088;-68
2021/10/08 03:48:22;;;;;;;10.32;5.32;;;;;;;;;;6235771;28;20045;-67
2021/10/08 03:51:24;;;;;;;10.32;5.10;;;;;;;;;;6232658;28;20037;-70
2021/10/08 03:54:27;;;;;;;7.90;4.60;;;;;;;;;;6248413;28;20424;-67
2021/10/08 03:57:28;;;;;;;8.18;4.82;;;;;;;;;;6230476;28;20077;-69
2021/10/08 04:00:30;;;;;;;8.57;4.90;;;;;;;;;;6231152;28;20034;-73
2021/10/08 04:03:32;;;;;;;7.85;4.78;;;;;;;;;;6227058;28;20041;-68
2021/10/08 04:06:34;;;;;;;8.45;5.38;;;;;;;;;;6229210;28;20051;-68
2021/10/08 04:09:37;;;;;;;11.70;4.85;;;;;;;;;;6236879;28;20057;-68
2021/10/08 04:12:38;;;;;;;9.13;4.40;;;;;;;;;;6231650;28;20095;-69
2021/10/08 04:15:40;;;;;;;6.35;4.43;;;;;;;;;;6228764;28;20050;-69
2021/10/08 04:18:42;;;;;;;10.32;4.90;;;;;;;;;;6234309;28;20057;-68
2021/10/08 04:21:43;;;;;;;5.90;3.97;;;;;;;;;;6226912;28;20053;-72
2021/10/08 04:24:46;;;;;;;11.07;4.63;;;;;;;;;;6235973;28;20050;-71
2021/10/08 04:27:48;;;;;;;6.65;4.25;;;;;;;;;;6228758;28;20051;-67
2021/10/08 04:30:49;;;;;;;9.38;4.50;;;;;;;;;;6224509;28;21168;-68
2021/10/08 04:33:51;;;;;;;8.27;4.25;;;;;;;;;;6233280;28;20053;-69
2021/10/08 04:36:53;;;;;;;6.85;4.20;;;;;;;;;;6225425;28;20034;-71
2021/10/08 04:39:56;;;;;;;9.10;4.10;;;;;;;;;;6238148;28;20056;-69
2021/10/08 04:42:57;;;;;;;8.95;4.15;;;;;;;;;;6230353;28;20098;-68
2021/10/08 04:45:59;;;;;;;8.25;4.25;;;;;;;;;;6224635;28;20063;-69
2021/10/08 04:49:00;;;;;;;6.43;3.80;;;;;;;;;;6232595;28;20268;-68
2021/10/08 04:52:02;;;;;;;8.10;4.13;;;;;;;;;;6223748;28;20056;-67
2021/10/08 04:55:06;;;;;;;10.75;4.00;;;;;;;;;;6238853;28;20045;-69
2021/10/08 04:58:08;;;;;;;4.22;3.80;;;;;;;;;;6233750;28;20124;-68
2021/10/08 05:01:09;;;;;;;7.55;4.55;;;;;;;;;;6222268;28;20053;-68
2021/10/08 05:04:11;;;;;;;8.30;4.40;;;;;;;;;;6233899;28;22714;-68
2021/10/08 05:07:12;;;;;;;6.20;4.50;;;;;;;;;;6230306;28;20251;-67
2021/10/08 05:10:15;;;;;;;7.90;4.10;;;;;;;;;;6229543;28;20516;-68
2021/10/08 05:13:17;;;;;;;11.60;4.25;;;;;;;;;;6238745;28;20499;-68
2021/10/08 05:16:18;;;;;;;8.65;4.15;;;;;;;;;;6223315;28;20107;-69
2021/10/08 05:19:20;;;;;;;8.02;4.40;;;;;;;;;;6236411;28;20045;-69
2021/10/08 05:22:22;;;;;;;6.75;4.00;;;;;;;;;;6226849;28;20045;-73
2021/10/08 05:25:25;;;;;;;7.30;4.43;;;;;;;;;;6229142;28;20049;-68
2021/10/08 05:28:27;;;;;;;9.07;3.95;;;;;;;;;;6237695;28;20504;-72
2021/10/08 05:31:30;;;;;;;9.88;4.15;;;;;;;;;;6224551;28;20272;-68
2021/10/08 05:34:31;;;;;;;13.98;4.32;;;;;;;;;;6237695;28;20041;-68
2021/10/08 05:37:33;;;;;;;7.15;4.05;;;;;;;;;;6223135;28;20132;-73
2021/10/08 05:40:36;;;;;;;7.57;4.10;;;;;;;;;;6225881;28;20121;-69
2021/10/08 05:43:37;;;;;;;7.80;4.22;;;;;;;;;;6237155;28;20069;-68
2021/10/08 05:46:39;;;;;;;7.68;4.45;;;;;;;;;;6220389;28;20110;-70
2021/10/08 05:49:41;;;;;;;6.85;4.35;;;;;;;;;;6233013;28;20136;-71
2021/10/08 05:52:42;;;;;;;5.88;3.55;;;;;;;;;;6224945;28;20128;-68
2021/10/08 05:55:45;;;;;;;11.18;4.22;;;;;;;;;;6225815;28;20111;-69
2021/10/08 05:58:47;;;;;;;8.85;3.97;;;;;;;;;;6237365;28;20061;-69
2021/10/08 06:01:48;;;;;;;9.02;4.65;;;;;;;;;;6221044;28;20519;-68
2021/10/08 06:04:50;;;;;;;8.63;4.55;;;;;;;;;;6240867;28;20072;-69
2021/10/08 06:07:52;;;;;;;8.88;4.22;;;;;;;;;;6226425;28;20352;-68
2021/10/08 06:10:54;;;;;;;9.63;4.40;;;;;;;;;;6229648;28;20124;-68
2021/10/08 06:13:56;;;;;;;9.68;4.88;;;;;;;;;;6237083;28;20075;-69
2021/10/08 06:16:58;;;;;;;8.68;4.22;;;;;;;;;;6220536;28;20057;-69
2021/10/08 06:19:59;;;;;;;11.95;4.70;;;;;;;;;;6230976;28;20509;-69
2021/10/08 06:23:01;;;;;;;11.05;4.80;;;;;;;;;;6224505;28;20171;-68
2021/10/08 06:26:05;;;;;;;8.93;4.05;;;;;;;;;;6226594;28;20541;-74
2021/10/08 06:29:07;;;;;;;11.52;4.85;;;;;;;;;;6242144;28;20128;-69
2021/10/08 06:32:08;;;;;;;12.68;4.53;;;;;;;;;;6219621;28;20042;-68
2021/10/08 06:35:10;;;;;;;9.57;4.63;;;;;;;;;;6230911;28;20453;-74
2021/10/08 06:38:12;;;;;;;10.18;4.32;;;;;;;;;;6231002;28;20059;-69
2021/10/08 06:41:15;;;;;;;9.93;4.78;;;;;;;;;;6230202;28;20401;-68
2021/10/08 06:44:16;;;;;;;13.13;3.90;;;;;;;;;;6235656;28;20049;-68
2021/10/08 06:47:18;;;;;;;11.20;4.45;;;;;;;;;;6218437;28;20188;-69
2021/10/08 06:50:19;;;;;;;11.38;4.60;;;;;;;;;;6227770;28;20041;-69
2021/10/08 06:53:21;;;;;;;9.65;3.95;;;;;;;;;;6237008;28;20042;-73
2021/10/08 06:56:24;;;;;;;10.38;4.82;;;;;;;;;;6223734;28;20231;-69
2021/10/08 06:59:26;;;;;;;10.15;4.30;;;;;;;;;;6235079;28;20401;-68
2021/10/08 07:02:27;;;;;;;8.65;3.67;;;;;;;;;;6208553;28;20053;-69
2021/10/08 07:05:29;;;;;;;8.88;4.43;;;;;;;;;;6223092;28;20045;-72
2021/10/08 07:08:31;;;;;;;11.77;4.20;;;;;;;;;;6239761;28;20509;-70
2021/10/08 07:11:34;;;;;;;5.95;3.88;;;;;;;;;;6221744;28;20156;-69
2021/10/08 07:14:35;;;;;;;11.43;5.13;;;;;;;;;;6234203;28;20199;-68
2021/10/08 07:17:41;;;;;;;9.77;4.32;;;;;;;;;;6219837;28;20095;-68
2021/10/08 07:20:45;;;;;;;8.82;4.20;;;;;;;;;;6222719;28;20049;-71
2021/10/08 07:23:47;;;;;;;7.30;4.18;;;;;;;;;;6232549;28;20165;-68
2021/10/08 07:26:50;;;;;;;9.07;4.05;;;;;;;;;;6226145;28;20200;-69
2021/10/08 07:29:51;;;;;;;8.40;3.88;;;;;;;;;;6237202;28;20053;-69
2021/10/08 07:32:53;;;;;;;7.45;4.43;;;;;;;;;;6220074;28;20053;-68
2021/10/08 07:35:55;;;;;;;7.82;3.78;;;;;;;;;;6225598;28;21379;-68
2021/10/08 07:38:56;;;;;;;11.45;4.18;;;;;;;;;;6242355;28;20057;-70
2021/10/08 07:41:59;;;;;;;6.85;3.53;;;;;;;;;;6228969;28;20064;-69
2021/10/08 07:45:01;;;;;;;7.75;3.97;;;;;;;;;;6241387;28;20188;-69
2021/10/08 07:48:03;;;;;;;8.00;3.90;;;;;;;;;;6224494;28;20041;-68
2021/10/08 07:51:05;;;;;;;9.27;3.95;;;;;;;;;;6227065;28;20091;-68
2021/10/08 07:54:08;;;;;;;9.38;4.10;;;;;;;;;;6238668;28;20132;-70
2021/10/08 07:57:11;;;;;;;9.75;4.18;;;;;;;;;;6224140;28;20042;-69
2021/10/08 08:00:13;;;;;;;12.90;4.25;;;;;;;;;;6228102;28;20057;-74
2021/10/08 08:03:15;;;;;;;7.97;4.05;;;;;;;;;;6227219;28;20132;-68
2021/10/08 08:06:16;;;;;;;9.63;3.78;;;;;;;;;;6220640;28;20045;-69
2021/10/08 08:09:18;;;;;;;9.77;4.50;;;;;;;;;;6235653;28;20137;-68
2021/10/08 08:12:21;;;;;;;8.38;4.07;;;;;;;;;;6227444;28;20056;-69
2021/10/08 08:15:23;;;;;;;10.60;4.80;;;;;;;;;;6226000;28;20551;-74
2021/10/08 08:18:24;;;;;;;8.40;4.18;;;;;;;;;;6229684;28;20041;-68
2021/10/08 08:21:26;;;;;;;11.30;4.70;;;;;;;;;;6224226;28;20041;-68
2021/10/08 08:24:27;;;;;;;12.27;4.57;;;;;;;;;;6234665;28;20049;-68
2021/10/08 08:27:30;;;;;;;7.25;4.50;;;;;;;;;;6227252;28;20128;-68
2021/10/08 08:30:36;;;;;;;9.87;4.60;;;;;;;;;;6220920;28;20068;-69
2021/10/08 08:33:37;;;;;;;9.00;3.85;;;;;;;;;;6228609;28;20056;-69
2021/10/08 08:36:39;;;;;;;8.68;4.13;;;;;;;;;;6223893;28;20148;-69
2021/10/08 08:39:42;;;;;;;9.27;4.82;;;;;;;;;;6228518;28;20560;-70
2021/10/08 08:42:45;;;;;;;6.22;4.10;;;;;;;;;;6222313;28;20050;-68
2021/10/08 08:45:47;;;;;;;8.38;4.25;;;;;;;;;;6218215;28;20068;-69
2021/10/08 08:48:48;;;;;;;7.22;3.85;;;;;;;;;;6225275;28;20536;-72
2021/10/08 08:51:50;;;;;;;7.82;3.30;;;;;;;;;;6220762;28;20046;-69
2021/10/08 08:54:53;;;;;;;7.85;3.30;;;;;;;;;;6232005;28;20079;-70
2021/10/08 08:57:56;;;;;;;8.05;3.40;;;;;;;;;;6220315;28;20069;-69
2021/10/08 09:00:59;;;;;;;7.30;2.83;;;;;;;;;;6226887;28;20058;-70
2021/10/08 09:04:05;;;;;;;7.05;2.72;;;;;;;;;;6229315;28;20049;-72
2021/10/08 09:07:14;;;;;;;4.22;2.25;;;;;;;;;;6223195;28;20049;-68
2021/10/08 09:10:17;;;;;;;5.40;2.28;;;;;;;;;;6223663;28;20069;-74
2021/10/08 09:13:21;;;;;;;6.90;2.58;;;;;;;;;;6231758;28;20046;-68
2021/10/08 09:16:23;;;;;;;10.75;4.03;;;;;;;;;;6218670;28;20494;-69
2021/10/08 09:19:25;;;;;;;5.85;2.97;;;;;;;;;;6233154;28;20049;-68
2021/10/08 09:22:29;;;;;;;6.05;3.47;;;;;;;;;;6225622;28;20183;-69
2021/10/08 09:25:34;;;;;;;6.60;3.17;;;;;;;;;;6225544;28;20041;-69
2021/10/08 09:28:52;;;;;;;4.47;2.60;;;;;;;;;;6239178;28;20041;-69
2021/10/08 09:31:53;;;;;;;7.57;3.00;;;;;;;;;;6192906;28;20259;-69
2021/10/08 09:35:05;;;;;;;7.97;2.85;;;;;;;;;;6243384;28;20157;-70
2021/10/08 09:38:10;;;;;;;7.40;2.75;;;;;;;;;;6227643;28;20140;-70
2021/10/08 09:41:12;;;;;;;5.72;2.90;;;;;;;;;;6222828;28;20042;-69
2021/10/08 09:44:15;;;;;;;7.43;3.20;;;;;;;;;;6236604;28;20176;-68
2021/10/08 09:47:18;;;;;;;11.43;3.37;;;;;;;;;;6222888;28;20045;-69
2021/10/08 09:50:20;;;;;;;3.65;2.65;;;;;;;;;;6225999;28;20076;-69
2021/10/08 09:53:22;;;;;;;5.53;2.85;;;;;;;;;;6234569;28;20041;-68
2021/10/08 09:56:32;;;;;;;6.93;2.92;;;;;;;;;;6227357;28;20136;-69
2021/10/08 09:59:39;;;;;;;4.47;2.70;;;;;;;;;;6233053;28;20106;-68
2021/10/08 10:03:00;;;;;;;6.60;3.22;;;;;;;;;;6216240;28;20052;-68
2021/10/08 10:06:04;;;;;;;4.97;3.05;;;;;;;;;;6219725;28;20184;-69
2021/10/08 10:09:07;;;;;;;6.28;3.03;;;;;;;;;;6228748;28;20038;-70
2021/10/08 10:12:09;;;;;;;5.90;3.28;;;;;;;;;;6219739;28;20052;-69
2021/10/08 10:15:12;;;;;;;7.35;3.47;;;;;;;;;;6221039;28;20137;-70
2021/10/08 10:18:15;;;;;;;5.20;3.25;;;;;;;;;;6212568;28;20057;-70
2021/10/08 10:21:20;;;;;;;6.50;3.50;;;;;;;;;;6214568;28;20605;-69
2021/10/08 10:24:23;;;;;;;4.82;3.08;;;;;;;;;;6227004;28;20053;-71
2021/10/08 10:27:24;;;;;;;7.13;3.55;;;;;;;;;;6222136;28;20183;-68
2021/10/08 10:30:28;;;;;;;5.65;3.30;;;;;;;;;;6217690;28;20095;-69
2021/10/08 10:33:31;;;;;;;7.43;3.75;;;;;;;;;;6219913;28;20532;-70
2021/10/08 10:36:39;;;;;;;8.23;3.47;;;;;;;;;;6221152;28;20046;-68
2021/10/08 10:39:41;;;;;;;6.32;3.00;;;;;;;;;;6226581;28;20095;-68
2021/10/08 10:42:43;;;;;;;4.05;2.92;;;;;;;;;;6217417;28;20060;-69
2021/10/08 10:45:50;;;;;;;3.28;2.78;;;;;;;;;;6214235;28;20042;-70
2021/10/08 10:49:40;;;;;;;7.03;2.90;;;;;;;;;;6229722;28;20093;-71
2021/10/08 10:52:50;;;;;;;7.85;4.80;;;;;;;;;;6217628;28;20034;-70
2021/10/08 10:55:52;;;;;;;5.40;3.55;;;;;;;;;;6221018;28;20050;-69
2021/10/08 10:59:27;;;;;;;6.07;4.13;;;;;;;;;;6237043;28;20125;-69
2021/10/08 11:02:31;;;;;;;5.53;4.20;;;;;;;;;;6211319;28;20411;-68
2021/10/08 11:05:34;;;;;;;5.80;3.80;;;;;;;;;;6220534;28;20111;-73
2021/10/08 11:08:36;;;;;;;5.38;3.88;;;;;;;;;;6241338;28;20050;-66
2021/10/08 11:11:38;;;;;;;6.17;4.57;;;;;;;;;;6225514;28;20050;-67
2021/10/08 11:14:40;;;;;;;6.15;3.88;;;;;;;;;;6236172;28;20212;-74
2021/10/08 11:17:46;;;;;;;6.32;4.18;;;;;;;;;;6218380;28;20054;-69
2021/10/08 11:20:49;;;;;;;5.10;3.55;;;;;;;;;;6222250;28;20037;-68
2021/10/08 11:23:50;;;;;;;5.00;3.20;;;;;;;;;;6229509;28;20596;-69
2021/10/08 11:26:54;;;;;;;6.30;3.33;;;;;;;;;;6221484;28;20447;-68
2021/10/08 11:30:03;;;;;;;4.72;3.45;;;;;;;;;;6234209;28;20057;-69
2021/10/08 11:33:06;;;;;;;5.60;3.38;;;;;;;;;;6221933;28;20046;-70
2021/10/08 11:36:14;;;;;;;;;;;;;;;;;;6225553;28;20049;-69
2021/10/08 11:39:18;;;;;;;5.97;4.18;;;;;;;;;;6235647;28;20016;-73
2021/10/08 11:42:20;;;;;;;7.57;3.58;;;;;;;;;;6225800;28;20816;-70
2021/10/08 11:45:33;;;;;;;6.65;4.20;;;;;;;;;;6230564;28;20056;-77
2021/10/08 11:48:39;;;;;;;5.65;4.07;;;;;;;;;;6231720;28;20507;-69
2021/10/08 11:51:41;;;;;;;6.20;4.60;;;;;;;;;;6226710;28;20067;-69
2021/10/08 11:54:43;;;;;;;6.90;4.70;;;;;;;;;;6238246;28;20570;-70
2021/10/08 11:57:53;;;;;;;8.07;4.70;;;;;;;;;;6224074;28;20140;-69
2021/10/08 12:00:54;;;;;;;5.53;4.07;;;;;;;;;;6214848;28;20045;-67
2021/10/08 12:03:57;;;;;;;6.22;4.07;;;;;;;;;;6227709;28;20037;-68
2021/10/08 12:07:06;;;;;;;10.27;5.05;;;;;;;;;;6219700;28;20499;-72
2021/10/08 12:10:10;;;;;;;7.55;4.45;;;;;;;;;;6216170;28;20064;-77
2021/10/08 12:13:12;;;;;;;7.90;4.70;;;;;;;;;;6223666;28;20079;-74
2021/10/08 12:16:15;;;;;;;7.93;5.40;;;;;;;;;;6217961;28;20097;-69
2021/10/08 12:19:18;;;;;;;8.38;5.22;;;;;;;;;;6227215;28;20171;-74
2021/10/08 12:22:23;;;;;;;10.60;5.05;;;;;;;;;;6207355;28;20045;-69
2021/10/08 12:25:25;;;;;;;6.30;4.90;;;;;;;;;;6221450;28;20132;-70
2021/10/08 12:28:27;;;;;;;7.35;4.68;;;;;;;;;;6230796;28;20062;-68
2021/10/08 12:31:52;;;;;;;9.43;4.88;;;;;;;;;;6224577;28;20041;-71
2021/10/08 12:34:56;;;;;;;6.82;5.05;;;;;;;;;;6209981;28;20102;-69
2021/10/08 12:38:03;;;;;;;6.45;4.70;;;;;;;;;;6228301;28;21670;-69
2021/10/08 12:41:19;;;;;;;6.07;4.68;;;;;;;;;;6228308;28;20077;-68
2021/10/08 12:44:23;;;;;;;4.45;4.05;;;;;;;;;;6239544;28;20111;-70
2021/10/08 12:47:26;;;;;;;7.13;4.65;;;;;;;;;;6224289;28;20132;-69
2021/10/08 12:50:29;;;;;;;7.07;3.95;;;;;;;;;;6227724;28;20053;-70
2021/10/08 12:53:31;;;;;;;5.75;4.15;;;;;;;;;;6239259;28;20485;-71
2021/10/08 12:56:32;;;;;;;7.88;4.20;;;;;;;;;;6227996;28;20528;-71
2021/10/08 12:59:51;;;;;;;7.55;4.22;;;;;;;;;;6239315;28;20037;-69
2021/10/08 13:02:52;;;;;;;8.57;4.20;;;;;;;;;;6219603;28;20049;-70
2021/10/08 13:05:55;;;;;;;6.43;3.78;;;;;;;;;;6225673;28;20058;-72
2021/10/08 13:09:03;;;;;;;6.05;4.15;;;;;;;;;;6236842;28;20045;-71
2021/10/08 13:12:05;;;;;;;6.70;4.53;;;;;;;;;;6228213;28;20520;-71
2021/10/08 13:15:10;;;;;;;7.45;3.90;;;;;;;;;;6228374;28;20187;-70
2021/10/08 13:18:13;;;;;;;7.53;3.97;;;;;;;;;;6211480;28;20570;-69
2021/10/08 13:21:18;;;;;;;8.80;3.87;;;;;;;;;;6219896;28;20050;-69
2021/10/08 13:24:20;;;;;;;6.00;3.67;;;;;;;;;;6223694;28;20090;-69
2021/10/08 13:27:21;;;;;;;6.43;3.58;;;;;;;;;;6221944;28;20053;-68
2021/10/08 13:30:23;;;;;;;4.95;3.28;;;;;;;;;;6217477;28;20135;-75
2021/10/08 13:33:25;;;;;;;6.30;3.60;;;;;;;;;;6221153;28;20046;-70
2021/10/08 13:36:28;;;;;;;5.53;3.53;;;;;;;;;;6220691;28;20037;-68
2021/10/08 13:39:30;;;;;;;6.97;3.10;;;;;;;;;;6227435;28;20057;-70
2021/10/08 13:42:31;;;;;;;6.32;3.45;;;;;;;;;;6218728;28;20089;-69
2021/10/08 13:45:33;;;;;;;5.85;3.45;;;;;;;;;;6217259;28;20061;-71
2021/10/08 13:48:34;;;;;;;5.95;3.08;;;;;;;;;;6221439;28;20046;-72
2021/10/08 13:51:37;;;;;;;6.25;2.90;;;;;;;;;;6219821;28;20057;-69
2021/10/08 13:54:39;;;;;;;;;;;;;;;;;;6230185;28;21397;-68
2021/10/08 13:57:41;;;;;;;4.47;2.65;;;;;;;;;;6224610;28;19928;-67
2021/10/08 14:00:45;;;;;;;3.97;2.50;;;;;;;;;;6219634;28;20551;-73
2021/10/08 14:03:54;;;;;;;3.95;2.42;;;;;;;;;;6225011;28;20053;-71
2021/10/08 14:07:09;;;;;;;3.47;2.13;;;;;;;;;;6216485;28;20041;-71
2021/10/08 14:10:17;;;;;;;4.25;2.00;;;;;;;;;;6224062;28;20049;-73
2021/10/08 14:13:19;;;;;;;3.45;2.00;;;;;;;;;;6225997;28;20056;-70
2021/10/08 14:16:21;;;;;;;4.03;2.10;;;;;;;;;;6211766;28;20133;-67
2021/10/08 14:19:22;;;;;;;4.10;1.92;;;;;;;;;;6225271;28;20139;-69
2021/10/08 14:22:26;;;;;;;5.18;2.58;;;;;;;;;;6214866;28;20496;-69
2021/10/08 14:25:27;;;;;;;3.83;2.45;;;;;;;;;;6218610;28;20133;-69
2021/10/08 14:28:30;;;;;;;3.88;2.50;;;;;;;;;;6224464;28;20076;-69
2021/10/08 14:31:32;;;;;;;3.58;2.55;;;;;;;;;;6212790;28;20053;-73
2021/10/08 14:34:34;;;;;;;5.47;2.20;;;;;;;;;;6222870;28;20357;-71
2021/10/08 14:37:37;;;;;;;3.70;2.83;;;;;;;;;;6213254;28;20132;-68
2021/10/08 14:40:39;;;;;;;4.13;2.80;;;;;;;;;;6215360;28;20064;-70
2021/10/08 14:43:41;;;;;;;7.73;3.10;;;;;;;;;;6230281;28;20050;-69
2021/10/08 14:46:42;;;;;;;3.40;2.72;;;;;;;;;;6217663;28;20128;-70
2021/10/08 14:49:45;;;;;;;4.18;2.70;;;;;;;;;;6228125;28;20045;-69
2021/10/08 14:52:47;;;;;;;4.20;2.70;;;;;;;;;;6219664;28;20084;-72
2021/10/08 14:55:58;;;;;;;;;;;;;;;;;;6224011;28;20038;-68
2021/10/08 14:58:59;;;;;;;5.53;2.92;;;;;;;;;;6232106;28;19932;-68
2021/10/08 15:02:01;;;;;;;4.75;3.28;;;;;;;;;;6206494;28;20083;-70
2021/10/08 15:05:05;;;;;;;4.53;3.47;;;;;;;;;;6227813;28;20084;-70
2021/10/08 15:08:08;;;;;;;6.05;3.40;;;;;;;;;;6223997;28;20061;-70
2021/10/08 15:11:09;;;;;;;;;;;;;;;;;;6220346;28;20053;-72
2021/10/08 15:14:11;;;;;;;6.45;3.70;;;;;;;;;;6233289;28;19921;-70
2021/10/08 15:17:13;;;;;;;6.97;3.80;;;;;;;;;;6214785;28;20053;-74
2021/10/08 15:20:14;;;;;;;4.72;3.78;;;;;;;;;;6221859;28;20061;-75
2021/10/08 15:23:17;;;;;;;6.05;3.67;;;;;;;;;;6228407;28;20131;-75
2021/10/08 15:26:19;;;;;;;5.68;3.95;;;;;;;;;;6220523;28;20053;-70
2021/10/08 15:29:21;;;;;;;5.75;4.18;;;;;;;;;;6232235;28;20107;-73
2021/10/08 15:32:22;;;;;;;8.27;4.50;;;;;;;;;;6214840;28;20135;-71
2021/10/08 15:35:24;;;;;;;5.47;4.00;;;;;;;;;;6220392;28;20853;-70
2021/10/08 15:38:28;;;;;;;5.32;4.18;;;;;;;;;;6229586;28;20103;-69
2021/10/08 15:41:31;;;;;;;5.72;4.93;;;;;;;;;;6219031;28;20187;-70
2021/10/08 15:44:32;;;;;;;6.07;4.78;;;;;;;;;;6228007;28;20390;-69
2021/10/08 15:47:34;;;;;;;6.00;4.80;;;;;;;;;;6223230;28;20049;-69
2021/10/08 15:50:36;;;;;;;7.63;4.45;;;;;;;;;;6221564;28;20522;-70
2021/10/08 15:53:39;;;;;;;6.28;5.00;;;;;;;;;;6238646;28;20105;-69
2021/10/08 15:56:41;;;;;;;;;;;;;;;;;;6227745;28;20041;-69
2021/10/08 15:59:44;;;;;;;5.90;4.22;;;;;;;;;;6243191;28;19921;-68
2021/10/08 16:02:45;;;;;;;;;;;;;;;;;;6211356;28;20057;-69
2021/10/08 16:05:47;;;;;;;7.55;4.80;;;;;;;;;;6206759;28;20723;-70
2021/10/08 16:08:50;;;;;;;6.15;5.10;;;;;;;;;;6225786;28;20049;-69
2021/10/08 16:11:52;;;;;;;5.75;4.63;;;;;;;;;;6217108;28;20049;-68
2021/10/08 16:14:53;;;;;;;6.95;5.00;;;;;;;;;;6227925;28;20068;-69
2021/10/08 16:17:58;;;;;;;6.95;4.65;;;;;;;;;;6213769;28;21599;-68
2021/10/08 16:20:59;;;;;;;7.95;5.50;;;;;;;;;;6216711;28;20057;-71
2021/10/08 16:24:02;;;;;;;8.55;5.45;;;;;;;;;;6223364;28;20076;-68
2021/10/08 16:27:04;;;;;;;5.75;4.68;;;;;;;;;;6221773;28;20048;-68
2021/10/08 16:30:07;;;;;;;8.15;4.88;;;;;;;;;;6227827;28;20045;-71
2021/10/08 16:33:09;;;;;;;7.70;5.25;;;;;;;;;;6213414;28;20083;-67
2021/10/08 16:36:12;;;;;;;9.73;6.03;;;;;;;;;;6212387;28;20099;-68
2021/10/08 16:39:15;;;;;;;8.68;5.43;;;;;;;;;;6221108;28;20041;-68
2021/10/08 16:42:16;;;;;;;8.75;5.28;;;;;;;;;;6217710;28;20057;-68
2021/10/08 16:45:21;;;;;;;7.60;5.18;;;;;;;;;;6220154;28;20427;-68
2021/10/08 16:48:23;;;;;;;8.52;5.40;;;;;;;;;;6223540;28;20129;-68
2021/10/08 16:51:24;;;;;;;10.27;5.97;;;;;;;;;;6218836;28;20067;-69
2021/10/08 16:54:29;;;;;;;9.00;6.57;;;;;;;;;;6230078;28;20045;-70
2021/10/08 16:57:31;;;;;;;13.85;6.50;;;;;;;;;;6222067;28;20132;-68
2021/10/08 17:00:32;;;;;;;9.45;6.05;;;;;;;;;;6218464;28;20034;-69
2021/10/08 17:03:34;;;;;;;9.70;5.82;;;;;;;;;;6221704;28;20132;-68
2021/10/08 17:06:36;;;;;;;8.63;6.07;;;;;;;;;;6218776;28;20079;-68
2021/10/08 17:09:39;;;;;;;9.50;6.30;;;;;;;;;;6233586;28;20521;-68
2021/10/08 17:12:41;;;;;;;11.15;6.85;;;;;;;;;;6226886;28;20089;-68
2021/10/08 17:15:43;;;;;;;8.82;7.32;;;;;;;;;;6228413;28;20953;-72
2021/10/08 17:18:44;;;;;;;8.82;6.70;;;;;;;;;;6232227;28;20034;-68
2021/10/08 17:21:46;;;;;;;12.85;6.60;;;;;;;;;;6222933;28;20045;-71
2021/10/08 17:24:54;;;;;;;9.60;7.13;;;;;;;;;;6236481;28;20136;-68
2021/10/08 17:27:58;;;;;;;10.40;6.53;;;;;;;;;;6222137;28;20079;-68
2021/10/08 17:34:18;;;;;;;9.55;6.38;;;;;;;;;;6237000;28;20561;-68
2021/10/08 17:37:20;;;;;;;11.27;6.03;;;;;;;;;;6223594;28;20179;-70
2021/10/08 17:40:24;;;;;;;10.30;6.30;;;;;;;;;;6230406;28;20042;-71
2021/10/08 17:43:25;;;;;;;;;;;;;;;;;;6238575;28;20037;-69
2021/10/08 17:46:27;;;;;;;10.15;6.32;;;;;;;;;;6224270;28;19982;-67
2021/10/08 17:49:28;;;;;;;7.28;5.38;;;;;;;;;;6234393;28;20046;-71
2021/10/08 17:52:30;;;;;;;14.98;5.90;;;;;;;;;;6227099;28;20179;-68
2021/10/08 17:55:33;;;;;;;9.25;5.95;;;;;;;;;;6230414;28;20119;-68
2021/10/08 17:58:35;;;;;;;8.30;5.63;;;;;;;;;;6238585;28;20120;-68
2021/10/08 18:01:36;;;;;;;8.45;5.72;;;;;;;;;;6218351;28;20061;-69
2021/10/08 18:04:38;;;;;;;8.35;5.90;;;;;;;;;;6236455;28;20171;-69
2021/10/08 18:07:40;;;;;;;8.88;5.55;;;;;;;;;;6223970;28;20128;-68
2021/10/08 18:10:43;;;;;;;9.23;5.57;;;;;;;;;;6227645;28;20091;-68
2021/10/08 18:13:45;;;;;;;10.25;5.50;;;;;;;;;;6236291;28;20061;-73
2021/10/08 18:16:46;;;;;;;9.18;5.05;;;;;;;;;;6220828;28;20405;-69
2021/10/08 18:19:48;;;;;;;11.25;5.78;;;;;;;;;;6234848;28;20129;-67